Martinsville, Virginia
Current Conditions -  °F | °C
As of 2:15 PM on Sunday 21 Dec 2014 (Local Time) from KMTV Reporting Station
Overcast Overcast  
Wind Chill: 44°   Ceiling: 4800
Heat Index: 46°   Visibility: 10mi
Dew Point: 34°   Wind: 5mph
Humidity: 62%   Direction: 90°E
Pressure: 30.25"   Gusts: NA
Location:  36.69°N, 79.87°W
Report Text: KMTV 211915Z AUTO 09004KT 10SM OVC048 08/01 A3025 RMK AO2 T00790011
Loading
Personal Weather Stations






























Interactive Weather Map New forecast layout! Learn more

10-Day Weather Forecast

Advertisements
Track Severe Weather on mobile